West Yellowstone, MT (59758)

5:25 AM MDT on September 29, 2016 (GMT -0600)
Rainbow Pointe | | Change Station

Elev 6581 ft 44.76 °N, 111.18 °W | Updated 5 seconds ago

Mostly Cloudy
Mostly Cloudy
35.8 °F
Feels Like 36 °F
N
1.3
Wind Variable Wind from WSW
Gusts 2.5 mph

Today
High -- | Low -- °F
--% Chance of Precip.
Yesterday
High -- | Low -- °F
Precip. -- in
Pressure 30.33 in
Visibility 10.0 miles
Clouds
Windchill 36 °F
Dew Point 34 °F
Humidity 95%
Rainfall 0.00 in
Snow Depth Not available.
7:20 AM 7:07 PM
Waning Crescent, 2% visible
METAR KWYS 291115Z AUTO 00000KT 10SM 00/00 A3033 RMK AO2
Pressure 30.33 in
Visibility 10.0 miles
Clouds
Windchill 36 °F
Dew Point 34 °F
Humidity 95%
Rainfall 0.00 in
Snow Depth Not available.
7:20 AM 7:07 PM
Waning Crescent, 2% visible
METAR KWYS 291115Z AUTO 00000KT 10SM 00/00 A3033 RMK AO2

10-Day Weather Forecast

Almanac

Astronomy

Sep. 29, 2016 Rise Set
Actual Time
Civil Twilight
Nautical Twilight
Astronomical Twilight
Moon
Length of Visible Light
Length of Day
Tomorrow will be .
, % of the Moon is Illuminated

Today's Extremes

State Highs State Lows

Community

WunderPhotos

Upload Photos

1,942,463 photos uploaded!

WunderBlog® & News

Nearby

Air Quality

  Air Quality AQ Index Pollutant
Not available.

Snow Depth

Station Depth Elevation

Earthquake Activity

City Distance Mag. Time & Date
Minimum magnitude displayed is 2.5.

Coastal Water Temperatures

Place Temperature

Stations

Nearby Weather Stations

Station Location Temp. Windchill Dew Point Humidity Wind Precip. Elev Updated Type
                   

Watches & Warnings

There are currently no watches in effect.